createdAt,value
2017-10-17T00:01:19.162Z,70.30
2017-10-17T00:06:15.768Z,70.20
2017-10-17T00:08:43.381Z,69.90
2017-10-17T00:11:12.087Z,69.90
2017-10-17T00:18:37.758Z,68.70
2017-10-17T00:21:06.820Z,69.80
2017-10-17T00:23:35.700Z,70.10
2017-10-17T00:26:04.396Z,69.40
2017-10-17T00:28:32.901Z,70.10
2017-10-17T00:31:01.306Z,70.20
2017-10-17T00:33:28.895Z,69.70
2017-10-17T00:36:02.085Z,69.40
2017-10-17T00:38:29.656Z,70.50
2017-10-17T00:43:30.169Z,70.70
2017-10-17T00:46:01.164Z,70.00
2017-10-17T00:48:28.785Z,70.20
2017-10-17T00:50:56.705Z,70.90
2017-10-17T00:53:24.314Z,72.30
2017-10-17T00:55:52.669Z,73.80
2017-10-17T00:58:20.293Z,74.90
2017-10-17T01:00:47.961Z,75.30
2017-10-17T01:03:15.549Z,75.40
2017-10-17T01:05:43.174Z,75.10
2017-10-17T01:08:10.828Z,74.40
2017-10-17T01:10:38.597Z,74.50
2017-10-17T01:15:35.245Z,75.30
2017-10-17T01:18:02.869Z,75.60
2017-10-17T01:20:31.359Z,75.90
2017-10-17T01:22:59.760Z,75.30
2017-10-17T01:28:00.004Z,76.60
2017-10-17T01:32:56.562Z,76.80
2017-10-17T01:35:24.122Z,76.50
2017-10-17T01:37:51.989Z,76.90
2017-10-17T01:42:59.341Z,76.40
2017-10-17T01:48:12.309Z,76.30
2017-10-17T01:50:52.938Z,75.90
2017-10-17T01:55:50.284Z,75.80
2017-10-17T01:58:21.984Z,76.30
2017-10-17T02:00:50.417Z,76.10
2017-10-17T02:03:18.508Z,75.80
2017-10-17T02:05:47.655Z,76.80
2017-10-17T02:08:16.781Z,77.80
2017-10-17T02:11:07.073Z,78.50
2017-10-17T02:13:35.584Z,78.60
2017-10-17T02:16:03.210Z,78.30
2017-10-17T02:18:33.141Z,78.30
2017-10-17T02:21:01.165Z,78.40
2017-10-17T02:23:28.752Z,78.00
2017-10-17T02:25:59.096Z,77.60
2017-10-17T02:28:31.426Z,77.80
2017-10-17T02:31:01.543Z,77.30
2017-10-17T02:35:58.938Z,77.30
2017-10-17T02:38:26.673Z,77.50
2017-10-17T02:40:54.254Z,78.00
2017-10-17T02:43:25.436Z,78.30
2017-10-17T02:45:53.899Z,77.80
2017-10-17T02:48:23.383Z,77.50
2017-10-17T02:50:51.061Z,76.90
2017-10-17T02:53:19.214Z,76.60
2017-10-17T02:55:47.552Z,76.50
2017-10-17T02:58:16.295Z,76.30
2017-10-17T03:03:17.406Z,75.80
2017-10-17T03:05:49.228Z,76.30
2017-10-17T03:08:18.078Z,76.20
2017-10-17T03:10:45.800Z,76.20
2017-10-17T03:13:17.424Z,75.80
2017-10-17T03:15:48.971Z,76.20
2017-10-17T03:18:18.062Z,76.10
2017-10-17T03:20:46.755Z,76.00
2017-10-17T03:23:18.108Z,76.00
2017-10-17T03:28:16.998Z,75.40
2017-10-17T03:30:47.985Z,75.30
2017-10-17T03:33:33.289Z,74.60
2017-10-17T03:36:09.777Z,74.50
2017-10-17T03:38:44.279Z,74.60
2017-10-17T03:41:18.670Z,74.80
2017-10-17T03:43:57.764Z,74.90
2017-10-17T03:46:27.680Z,74.40
2017-10-17T03:51:25.043Z,74.30
2017-10-17T03:53:52.610Z,73.60
2017-10-17T03:58:50.160Z,73.90
2017-10-17T04:01:35.518Z,73.90
2017-10-17T04:04:09.600Z,73.80
2017-10-17T04:10:15.739Z,73.70
2017-10-17T04:12:46.132Z,74.00
2017-10-17T04:15:13.894Z,73.90
2017-10-17T04:17:56.339Z,73.90
2017-10-17T04:23:11.860Z,73.90
2017-10-17T04:28:25.516Z,73.90
2017-10-17T04:30:59.763Z,74.20
2017-10-17T04:57:55.495Z,74.80
2017-10-17T05:00:23.088Z,74.40
2017-10-17T05:03:15.344Z,74.10
2017-10-17T05:05:44.248Z,73.70
2017-10-17T05:22:10.576Z,75.60
2017-10-17T16:29:20.421Z,48.90
2017-10-17T16:31:48.445Z,49.60
2017-10-17T16:34:16.042Z,50.00
2017-10-17T16:36:43.629Z,50.70
2017-10-17T16:39:12.559Z,51.10
2017-10-17T16:41:40.181Z,52.10
2017-10-17T16:44:08.079Z,52.80
2017-10-17T16:46:35.705Z,53.60
2017-10-17T16:49:03.271Z,53.40
2017-10-17T16:51:30.915Z,53.50
2017-10-17T16:53:59.541Z,53.60
2017-10-17T16:56:28.705Z,54.10
2017-10-17T16:58:56.775Z,55.00
2017-10-17T17:01:25.193Z,54.90
2017-10-17T17:03:52.814Z,55.50
2017-10-17T17:06:20.785Z,56.40
2017-10-17T17:08:48.446Z,57.20
2017-10-17T17:11:16.060Z,57.10
2017-10-17T17:13:44.435Z,57.30
2017-10-17T17:16:12.088Z,57.60
2017-10-17T17:18:39.667Z,57.70
2017-10-17T17:21:07.323Z,57.80
2017-10-17T17:23:34.922Z,58.20
2017-10-17T17:26:02.551Z,58.80
2017-10-17T17:28:31.756Z,59.40
2017-10-17T17:30:59.812Z,59.80
2017-10-17T17:33:28.299Z,59.90
2017-10-17T17:35:55.881Z,59.80
2017-10-17T17:38:24.290Z,59.90
2017-10-17T17:40:51.927Z,60.50
2017-10-17T17:43:20.639Z,60.70
2017-10-17T17:45:48.280Z,60.70
2017-10-17T17:48:15.874Z,60.70
2017-10-17T17:50:43.925Z,60.90
2017-10-17T17:53:12.304Z,61.00
2017-10-17T17:55:40.768Z,61.70
2017-10-17T17:58:08.380Z,61.50
2017-10-17T18:00:36.578Z,62.00
2017-10-17T18:03:04.255Z,62.50
2017-10-17T18:05:31.906Z,63.00
2017-10-17T18:08:00.337Z,63.10
2017-10-17T18:10:27.918Z,63.00
2017-10-17T18:12:55.993Z,62.90
2017-10-17T18:15:23.573Z,63.00
2017-10-17T18:17:52.657Z,63.00
2017-10-17T18:20:20.789Z,62.90
2017-10-17T18:22:50.906Z,63.10
2017-10-17T18:25:18.545Z,63.30
2017-10-17T18:27:46.894Z,63.00
2017-10-17T18:30:14.961Z,63.20
2017-10-17T18:32:42.553Z,63.40
2017-10-17T18:35:10.183Z,63.60
2017-10-17T18:37:38.312Z,64.10
2017-10-17T18:40:05.969Z,64.20
2017-10-17T18:42:33.603Z,64.00
2017-10-17T18:45:02.261Z,64.10
2017-10-17T18:47:30.767Z,64.30
2017-10-17T18:49:59.415Z,64.20
2017-10-17T18:52:27.084Z,64.50
2017-10-17T18:54:55.869Z,64.40
2017-10-17T18:57:24.216Z,64.60
2017-10-17T18:59:51.864Z,64.50
2017-10-17T19:02:19.613Z,64.80
2017-10-17T19:04:47.997Z,64.60
2017-10-17T19:07:17.090Z,64.80
2017-10-17T19:09:44.936Z,65.10
2017-10-17T19:12:12.950Z,64.70
2017-10-17T19:17:09.606Z,65.30
2017-10-17T19:19:37.190Z,65.30
2017-10-17T19:22:05.298Z,65.50
2017-10-17T19:24:32.918Z,65.70
2017-10-17T19:27:00.547Z,65.60
2017-10-17T19:29:28.518Z,66.10
2017-10-17T19:31:56.164Z,66.10
2017-10-17T19:36:53.009Z,66.60
2017-10-17T19:39:21.797Z,66.50
2017-10-17T19:41:49.397Z,66.00
2017-10-17T19:44:18.122Z,66.00
2017-10-17T19:46:45.740Z,66.10
2017-10-17T19:49:13.314Z,66.10
2017-10-17T19:54:10.117Z,66.30
2017-10-17T19:56:38.655Z,66.20
2017-10-17T19:59:06.625Z,66.10
2017-10-17T20:01:34.227Z,66.10
2017-10-17T20:04:01.838Z,66.70
2017-10-17T20:06:30.215Z,66.90
2017-10-17T20:08:57.822Z,66.60
2017-10-17T20:11:25.393Z,66.70
2017-10-17T20:13:53.038Z,66.80
2017-10-17T20:16:20.884Z,67.30
2017-10-17T20:18:49.286Z,67.20
2017-10-17T20:21:16.967Z,66.90
2017-10-17T20:23:44.557Z,66.60
2017-10-17T20:26:12.192Z,66.70
2017-10-17T20:28:40.211Z,66.90
2017-10-17T20:31:07.793Z,67.00
2017-10-17T20:33:35.435Z,66.60
2017-10-17T20:36:03.014Z,66.80
2017-10-17T20:38:30.648Z,67.00
2017-10-17T20:40:58.235Z,67.40
2017-10-17T20:43:26.627Z,67.80
2017-10-17T20:45:54.961Z,68.00
2017-10-17T20:48:22.644Z,67.90
2017-10-17T20:50:51.023Z,67.90
2017-10-17T20:55:47.652Z,67.50
2017-10-17T21:00:44.581Z,66.80
2017-10-17T21:03:12.929Z,67.40
2017-10-17T21:05:41.673Z,67.60
2017-10-17T21:08:09.299Z,67.30
2017-10-17T21:10:36.891Z,67.40
2017-10-17T21:13:04.905Z,67.50
2017-10-17T21:15:33.613Z,67.50
2017-10-17T21:20:30.220Z,67.30
2017-10-17T21:22:58.958Z,67.60
2017-10-17T21:25:26.924Z,67.70
2017-10-17T21:27:54.537Z,67.90
2017-10-17T21:30:22.912Z,68.30
2017-10-17T21:32:50.565Z,68.30
2017-10-17T21:35:18.577Z,68.10
2017-10-17T21:37:46.145Z,67.80
2017-10-17T21:40:13.733Z,67.80
2017-10-17T21:42:42.486Z,67.60
2017-10-17T21:45:10.180Z,68.40
2017-10-17T21:47:37.808Z,68.90
2017-10-17T21:50:08.174Z,69.20
2017-10-17T21:52:37.020Z,69.50
2017-10-17T21:55:04.591Z,69.50
2017-10-17T21:57:33.010Z,69.90
2017-10-17T22:00:00.591Z,69.40
2017-10-17T22:02:28.229Z,69.00
2017-10-17T22:04:55.842Z,69.00
2017-10-17T22:07:24.574Z,69.20
2017-10-17T22:09:52.182Z,68.70
2017-10-17T22:12:19.749Z,68.40
2017-10-17T22:14:47.374Z,67.80
2017-10-17T22:17:16.089Z,67.70
2017-10-17T22:19:43.698Z,67.40
2017-10-17T22:22:11.337Z,67.60
2017-10-17T22:24:38.968Z,67.80
2017-10-17T22:27:07.149Z,68.00
2017-10-17T22:29:34.766Z,67.70
2017-10-17T22:32:02.415Z,67.60
2017-10-17T22:34:29.986Z,68.30
2017-10-17T22:36:57.573Z,68.90
2017-10-17T22:39:25.948Z,69.10
2017-10-17T22:41:54.278Z,69.00
2017-10-17T22:44:21.938Z,68.90
2017-10-17T22:46:50.258Z,68.40
2017-10-17T22:49:17.857Z,70.50
2017-10-17T22:51:45.432Z,68.70
2017-10-17T22:54:13.117Z,68.70
2017-10-17T22:56:40.706Z,68.60
2017-10-17T22:59:08.293Z,69.00
2017-10-17T23:01:35.919Z,69.40
2017-10-17T23:04:03.555Z,68.80
2017-10-17T23:06:31.194Z,68.50
2017-10-17T23:08:59.550Z,69.90
2017-10-17T23:11:27.145Z,69.60
2017-10-17T23:13:54.789Z,69.60
2017-10-17T23:16:22.430Z,69.10
2017-10-17T23:19:01.566Z,68.40
2017-10-17T23:21:29.262Z,68.40
2017-10-17T23:23:56.856Z,68.10
2017-10-17T23:26:24.545Z,68.90
2017-10-17T23:28:52.117Z,69.70
2017-10-17T23:31:19.693Z,69.60
2017-10-17T23:33:47.338Z,70.30
2017-10-17T23:36:14.951Z,70.00
2017-10-17T23:38:43.373Z,69.70
2017-10-17T23:41:10.949Z,69.00
2017-10-17T23:43:38.540Z,68.60
2017-10-17T23:46:06.168Z,68.60
2017-10-17T23:48:33.759Z,68.90
2017-10-17T23:51:01.384Z,68.80
2017-10-17T23:53:28.948Z,68.70
2017-10-17T23:55:56.588Z,68.30
2017-10-17T23:58:24.156Z,68.30
